createdAt,value
2018-12-06T00:01:04.781Z,5.23
2018-12-06T00:03:38.176Z,5.21
2018-12-06T00:06:10.866Z,5.15
2018-12-06T00:08:43.508Z,5.25
2018-12-06T00:11:16.697Z,5.15
2018-12-06T00:13:49.578Z,5.14
2018-12-06T00:16:23.194Z,5.12
2018-12-06T00:19:15.739Z,5.18
2018-12-06T00:21:49.229Z,5.25
2018-12-06T00:24:22.235Z,5.14
2018-12-06T00:26:55.139Z,5.16
2018-12-06T00:29:27.660Z,5.22
2018-12-06T00:32:01.167Z,5.13
2018-12-06T00:34:34.924Z,5.18
2018-12-06T00:37:07.622Z,5.21
2018-12-06T00:39:40.264Z,5.15
2018-12-06T00:42:12.982Z,5.18
2018-12-06T00:44:45.529Z,5.26
2018-12-06T00:47:18.439Z,5.20
2018-12-06T00:49:50.935Z,5.26
2018-12-06T00:52:24.595Z,5.32
2018-12-06T00:54:57.076Z,5.24
2018-12-06T00:57:29.668Z,5.32
2018-12-06T01:00:02.617Z,5.37
2018-12-06T01:02:37.017Z,5.33
2018-12-06T01:05:11.689Z,5.36
2018-12-06T01:07:45.523Z,5.36
2018-12-06T01:10:18.156Z,5.36
2018-12-06T01:12:50.706Z,5.40
2018-12-06T01:15:24.813Z,5.32
2018-12-06T01:17:57.327Z,5.37
2018-12-06T01:20:29.919Z,5.42
2018-12-06T01:23:02.473Z,5.39
2018-12-06T01:25:35.065Z,5.34
2018-12-06T01:28:07.584Z,5.44
2018-12-06T01:30:40.139Z,5.39
2018-12-06T01:33:12.643Z,5.44
2018-12-06T01:35:45.199Z,5.40
2018-12-06T01:38:17.861Z,5.37
2018-12-06T01:40:50.450Z,5.39
2018-12-06T01:43:22.980Z,5.46
2018-12-06T01:45:55.584Z,5.58
2018-12-06T01:48:28.171Z,5.51
2018-12-06T01:51:00.711Z,5.57
2018-12-06T01:53:33.284Z,5.71
2018-12-06T01:56:05.850Z,5.66
2018-12-06T01:58:38.399Z,5.63
2018-12-06T02:01:11.047Z,5.60
2018-12-06T02:03:43.651Z,5.62
2018-12-06T02:06:16.218Z,5.58
2018-12-06T02:08:48.847Z,5.55
2018-12-06T02:11:21.452Z,5.56
2018-12-06T02:13:54.047Z,5.67
2018-12-06T02:16:26.713Z,5.57
2018-12-06T02:18:59.301Z,5.62
2018-12-06T02:21:31.842Z,5.61
2018-12-06T02:24:04.648Z,5.66
2018-12-06T02:26:37.197Z,5.63
2018-12-06T02:29:09.824Z,5.73
2018-12-06T02:31:43.742Z,5.64
2018-12-06T02:34:16.242Z,5.69
2018-12-06T02:36:48.903Z,5.65
2018-12-06T02:39:21.542Z,5.69
2018-12-06T02:41:54.113Z,5.67
2018-12-06T02:44:26.814Z,5.85
2018-12-06T02:46:59.375Z,5.86
2018-12-06T02:49:31.951Z,5.87
2018-12-06T02:52:04.497Z,5.86
2018-12-06T02:54:37.090Z,5.88
2018-12-06T02:57:09.670Z,5.89
2018-12-06T02:59:42.230Z,5.92
2018-12-06T03:02:14.798Z,6.02
2018-12-06T03:04:47.313Z,5.97
2018-12-06T03:07:21.087Z,5.98
2018-12-06T03:09:53.602Z,6.14
2018-12-06T03:12:26.349Z,6.10
2018-12-06T03:14:59.001Z,6.06
2018-12-06T03:17:33.719Z,6.07
2018-12-06T03:20:07.284Z,6.17
2018-12-06T03:22:39.885Z,6.20
2018-12-06T03:25:12.684Z,6.20
2018-12-06T03:27:45.240Z,5.96
2018-12-06T03:30:17.757Z,6.10
2018-12-06T03:32:51.486Z,6.05
2018-12-06T03:35:24.075Z,5.97
2018-12-06T03:37:56.770Z,5.99
2018-12-06T03:40:29.316Z,6.05
2018-12-06T03:43:01.961Z,6.07
2018-12-06T03:45:34.478Z,6.15
2018-12-06T03:48:07.057Z,6.19
2018-12-06T03:50:39.596Z,6.10
2018-12-06T03:53:12.241Z,6.09
2018-12-06T03:55:44.802Z,6.14
2018-12-06T03:58:17.354Z,6.19
2018-12-06T04:00:49.939Z,6.30
2018-12-06T04:03:22.510Z,6.14
2018-12-06T04:05:55.939Z,6.26
2018-12-06T04:08:28.837Z,6.23
2018-12-06T04:11:01.453Z,6.27
2018-12-06T04:13:34.037Z,6.27
2018-12-06T04:16:06.592Z,6.22
2018-12-06T04:18:39.200Z,6.30
2018-12-06T04:21:11.714Z,6.33
2018-12-06T04:23:44.264Z,6.35
2018-12-06T04:26:16.769Z,6.35
2018-12-06T04:28:50.159Z,6.41
2018-12-06T04:31:23.506Z,6.40
2018-12-06T04:33:58.030Z,6.51
2018-12-06T04:36:30.593Z,6.48
2018-12-06T04:39:05.485Z,6.45
2018-12-06T04:41:38.854Z,6.48
2018-12-06T04:44:11.472Z,6.54
2018-12-06T04:46:44.067Z,6.53
2018-12-06T04:49:16.636Z,6.57
2018-12-06T04:51:49.167Z,6.53
2018-12-06T04:54:21.709Z,6.46
2018-12-06T04:56:54.310Z,6.41
2018-12-06T04:59:26.810Z,6.49
2018-12-06T05:01:59.324Z,6.43
2018-12-06T05:04:31.938Z,6.48
2018-12-06T05:07:05.329Z,6.45
2018-12-06T05:09:37.903Z,6.44
2018-12-06T05:12:10.463Z,6.49
2018-12-06T05:14:43.051Z,6.39
2018-12-06T05:17:15.689Z,6.44
2018-12-06T05:19:48.435Z,6.48
2018-12-06T05:22:21.026Z,6.54
2018-12-06T05:24:53.660Z,6.44
2018-12-06T05:27:26.189Z,6.43
2018-12-06T05:29:58.775Z,6.38
2018-12-06T05:32:31.385Z,6.40
2018-12-06T05:35:04.499Z,6.47
2018-12-06T05:37:37.049Z,6.45
2018-12-06T05:40:09.641Z,6.53
2018-12-06T05:42:42.271Z,6.43
2018-12-06T05:45:15.978Z,6.47
2018-12-06T05:47:48.595Z,6.58
2018-12-06T05:50:21.307Z,6.57
2018-12-06T05:52:53.951Z,6.59
2018-12-06T05:55:26.493Z,6.70
2018-12-06T05:57:59.060Z,6.59
2018-12-06T06:00:31.819Z,6.59
2018-12-06T06:03:04.584Z,6.60
2018-12-06T06:05:37.168Z,6.67
2018-12-06T06:08:09.708Z,6.68
2018-12-06T06:13:44.307Z,6.81
2018-12-06T06:16:16.837Z,6.84
2018-12-06T06:18:49.413Z,6.94
2018-12-06T06:21:22.637Z,6.86
2018-12-06T06:23:55.195Z,6.74
2018-12-06T06:26:27.746Z,6.69
2018-12-06T06:29:00.336Z,6.70
2018-12-06T06:31:34.639Z,6.73
2018-12-06T06:34:07.478Z,6.77
2018-12-06T06:36:39.999Z,6.65
2018-12-06T06:39:13.631Z,6.63
2018-12-06T06:41:46.126Z,6.63
2018-12-06T06:44:18.650Z,6.65
2018-12-06T06:46:51.307Z,6.67
2018-12-06T06:49:23.917Z,6.69
2018-12-06T06:51:56.515Z,6.66
2018-12-06T06:54:29.011Z,6.70
2018-12-06T06:57:01.627Z,6.74
2018-12-06T06:59:34.247Z,6.68
2018-12-06T07:02:06.851Z,6.74
2018-12-06T07:04:39.418Z,6.74
2018-12-06T07:07:11.958Z,6.68
2018-12-06T07:09:44.565Z,6.68
2018-12-06T07:12:17.178Z,6.66
2018-12-06T07:14:49.838Z,6.72
2018-12-06T07:17:22.501Z,6.69
2018-12-06T07:19:55.068Z,6.72
2018-12-06T07:22:27.734Z,6.70
2018-12-06T07:25:01.034Z,6.75
2018-12-06T07:27:34.239Z,6.74
2018-12-06T07:30:12.218Z,6.79
2018-12-06T07:32:41.764Z,6.75
2018-12-06T07:35:14.347Z,6.81
2018-12-06T07:37:46.895Z,6.85
2018-12-06T07:40:19.458Z,6.88
2018-12-06T07:42:52.107Z,6.89
2018-12-06T07:45:24.730Z,6.93
2018-12-06T07:47:57.287Z,6.94
2018-12-06T07:50:30.002Z,6.98
2018-12-06T07:53:03.132Z,6.90
2018-12-06T07:55:35.702Z,6.95
2018-12-06T07:58:08.269Z,6.94
2018-12-06T08:00:40.874Z,6.95
2018-12-06T08:03:13.522Z,6.93
2018-12-06T08:05:46.108Z,6.94
2018-12-06T08:08:19.077Z,6.96
2018-12-06T08:10:51.723Z,7.03
2018-12-06T08:13:24.303Z,7.04
2018-12-06T08:15:56.923Z,7.03
2018-12-06T08:18:31.738Z,7.03
2018-12-06T08:21:04.374Z,7.05
2018-12-06T08:23:36.920Z,7.05
2018-12-06T08:26:09.540Z,7.10
2018-12-06T08:28:42.055Z,7.07
2018-12-06T08:31:16.568Z,7.11
2018-12-06T08:33:50.031Z,7.16
2018-12-06T08:36:23.270Z,7.18
2018-12-06T08:38:55.815Z,7.25
2018-12-06T08:41:28.441Z,7.34
2018-12-06T08:44:01.020Z,7.36
2018-12-06T08:46:33.656Z,7.43
2018-12-06T08:49:06.271Z,7.52
2018-12-06T08:51:38.877Z,7.58
2018-12-06T08:54:11.473Z,7.63
2018-12-06T08:56:44.089Z,7.61
2018-12-06T08:59:16.663Z,7.61
2018-12-06T09:01:49.168Z,7.60
2018-12-06T09:04:21.959Z,7.64
2018-12-06T09:06:54.665Z,7.66
2018-12-06T09:09:27.222Z,7.65
2018-12-06T09:11:59.818Z,7.66
2018-12-06T09:14:32.439Z,7.67
2018-12-06T09:17:05.175Z,7.73
2018-12-06T09:19:37.760Z,7.73
2018-12-06T09:22:10.339Z,7.72
2018-12-06T09:24:43.015Z,7.73
2018-12-06T09:27:15.660Z,7.73
2018-12-06T09:29:49.096Z,7.77
2018-12-06T09:32:21.799Z,7.75
2018-12-06T09:34:54.435Z,7.76
2018-12-06T09:37:27.167Z,7.75
2018-12-06T09:40:00.196Z,7.75
2018-12-06T09:42:34.612Z,7.76
2018-12-06T09:45:08.300Z,7.78
2018-12-06T09:47:41.015Z,7.77
2018-12-06T09:50:13.597Z,7.77
2018-12-06T09:52:46.162Z,7.79
2018-12-06T09:55:18.788Z,7.78
2018-12-06T09:57:52.051Z,7.79
2018-12-06T10:00:24.684Z,7.79
2018-12-06T10:02:57.309Z,7.84
2018-12-06T10:05:29.938Z,7.88
2018-12-06T10:08:02.585Z,7.96
2018-12-06T10:10:35.834Z,8.02
2018-12-06T10:13:08.415Z,8.04
2018-12-06T10:15:41.064Z,8.03
2018-12-06T10:18:14.335Z,8.05
2018-12-06T10:20:46.969Z,8.06
2018-12-06T10:23:20.040Z,8.08
2018-12-06T10:25:52.605Z,8.07
2018-12-06T10:28:25.265Z,8.10
2018-12-06T10:30:57.850Z,8.14
2018-12-06T10:33:31.007Z,8.16
2018-12-06T10:36:03.707Z,8.16
2018-12-06T10:38:36.260Z,8.18
2018-12-06T10:41:08.931Z,8.26
2018-12-06T10:43:41.546Z,8.25
2018-12-06T10:46:15.226Z,8.22
2018-12-06T10:48:47.845Z,8.28
2018-12-06T10:51:55.592Z,8.26
2018-12-06T10:54:28.165Z,8.31
2018-12-06T10:57:00.773Z,8.32
2018-12-06T10:59:35.037Z,8.38
2018-12-06T11:02:13.800Z,8.39
2018-12-06T11:04:46.454Z,8.42
2018-12-06T11:07:19.040Z,8.41
2018-12-06T11:09:51.633Z,8.44
2018-12-06T11:12:24.274Z,8.46
2018-12-06T11:14:56.843Z,8.48
2018-12-06T11:17:29.439Z,8.60
2018-12-06T11:20:02.030Z,8.62
2018-12-06T11:22:34.746Z,8.73
2018-12-06T11:25:07.286Z,8.78
2018-12-06T11:27:39.890Z,8.78
2018-12-06T11:30:12.522Z,8.86
2018-12-06T11:32:45.289Z,8.90
2018-12-06T11:35:18.026Z,9.00
2018-12-06T11:37:50.713Z,8.97
2018-12-06T11:40:23.327Z,9.02
2018-12-06T11:42:56.485Z,9.07
2018-12-06T11:45:29.063Z,9.09
2018-12-06T11:48:01.623Z,9.11
2018-12-06T11:50:34.294Z,9.16
2018-12-06T11:53:06.833Z,9.20
2018-12-06T11:55:40.360Z,9.21
2018-12-06T11:58:13.006Z,9.23
2018-12-06T12:00:45.631Z,9.23
2018-12-06T12:03:18.715Z,9.28
2018-12-06T12:05:58.385Z,9.31
2018-12-06T12:08:26.230Z,9.32
2018-12-06T12:10:59.116Z,9.31
2018-12-06T12:13:33.055Z,9.33
2018-12-06T12:16:05.947Z,9.38
2018-12-06T12:18:38.929Z,9.36
2018-12-06T12:21:13.361Z,9.44
2018-12-06T12:23:47.387Z,9.43
2018-12-06T12:26:22.647Z,9.49
2018-12-06T12:28:55.688Z,9.47
2018-12-06T12:31:30.550Z,9.50
2018-12-06T12:34:04.127Z,9.53
2018-12-06T12:36:36.723Z,9.58
2018-12-06T12:39:10.513Z,9.57
2018-12-06T12:41:43.463Z,9.62
2018-12-06T12:44:16.068Z,9.69
2018-12-06T12:46:48.669Z,9.65
2018-12-06T12:49:22.370Z,9.71
2018-12-06T12:51:57.500Z,9.73
2018-12-06T12:54:30.787Z,9.74
2018-12-06T12:57:04.569Z,9.77
2018-12-06T12:59:38.498Z,9.78
2018-12-06T13:02:13.122Z,9.81
2018-12-06T13:04:46.954Z,9.83
2018-12-06T13:07:23.538Z,9.89
2018-12-06T13:10:01.130Z,9.89
2018-12-06T13:12:40.249Z,9.88
2018-12-06T13:15:15.376Z,9.90
2018-12-06T13:17:50.183Z,9.90
2018-12-06T13:20:25.511Z,9.92
2018-12-06T13:22:59.435Z,9.92
2018-12-06T13:25:35.371Z,9.97
2018-12-06T13:28:12.771Z,10.02
2018-12-06T13:30:46.407Z,9.99
2018-12-06T13:33:21.290Z,9.97
2018-12-06T13:35:56.961Z,9.97
2018-12-06T13:38:31.434Z,9.95
2018-12-06T13:41:04.883Z,9.97
2018-12-06T13:43:40.869Z,9.99
2018-12-06T13:46:13.471Z,10.04
2018-12-06T13:48:47.130Z,10.03
2018-12-06T13:51:19.884Z,10.01
2018-12-06T13:53:52.628Z,10.04
2018-12-06T13:56:26.839Z,10.02
2018-12-06T13:59:04.871Z,10.08
2018-12-06T14:01:39.752Z,10.08
2018-12-06T14:04:12.973Z,10.08
2018-12-06T14:06:46.850Z,10.06
2018-12-06T14:09:21.285Z,10.01
2018-12-06T14:11:59.341Z,10.02
2018-12-06T14:14:33.916Z,9.99
2018-12-06T14:17:06.550Z,9.99
2018-12-06T14:19:40.115Z,10.00
2018-12-06T14:22:12.656Z,10.01
2018-12-06T14:24:48.786Z,10.02
2018-12-06T14:27:21.977Z,10.05
2018-12-06T14:29:54.802Z,10.05
2018-12-06T14:32:27.407Z,10.04
2018-12-06T14:35:00.339Z,10.06
2018-12-06T14:37:33.940Z,10.01
2018-12-06T14:40:07.548Z,10.03
2018-12-06T14:42:41.343Z,10.09
2018-12-06T14:45:14.562Z,10.13
2018-12-06T14:47:48.341Z,10.17
2018-12-06T14:50:22.018Z,10.09
2018-12-06T14:53:01.735Z,10.05
2018-12-06T14:55:36.684Z,10.09
2018-12-06T14:58:10.776Z,10.12
2018-12-06T15:00:45.354Z,10.08
2018-12-06T15:03:19.071Z,10.09
2018-12-06T15:05:51.941Z,10.09
2018-12-06T15:08:25.812Z,10.07
2018-12-06T15:11:03.656Z,10.01
2018-12-06T15:13:38.519Z,10.04
2018-12-06T15:16:12.832Z,10.08
2018-12-06T15:18:45.502Z,10.08
2018-12-06T15:21:19.037Z,10.03
2018-12-06T15:23:54.372Z,10.06
2018-12-06T15:26:26.963Z,10.14
2018-12-06T15:28:59.563Z,10.10
2018-12-06T15:31:32.789Z,10.07
2018-12-06T15:34:06.129Z,10.08
2018-12-06T15:36:38.750Z,10.05
2018-12-06T15:39:11.380Z,10.03
2018-12-06T15:41:44.997Z,10.05
2018-12-06T15:44:18.089Z,10.05
2018-12-06T15:46:50.759Z,10.04
2018-12-06T15:49:23.563Z,10.06
2018-12-06T15:51:57.181Z,10.05
2018-12-06T15:56:02.300Z,10.05
2018-12-06T15:58:35.896Z,10.07
2018-12-06T16:01:09.928Z,10.07
2018-12-06T16:03:44.175Z,10.10
2018-12-06T16:06:17.148Z,10.11
2018-12-06T16:08:50.596Z,10.14
2018-12-06T16:11:24.116Z,10.13
2018-12-06T16:13:56.776Z,10.11
2018-12-06T16:16:29.483Z,10.06
2018-12-06T16:19:02.836Z,10.07
2018-12-06T16:21:36.448Z,10.08
2018-12-06T16:24:09.032Z,10.08
2018-12-06T16:26:42.701Z,10.10
2018-12-06T16:29:18.294Z,10.08
2018-12-06T16:31:51.782Z,10.08
2018-12-06T16:34:24.415Z,10.11
2018-12-06T16:36:57.101Z,10.13
2018-12-06T16:39:31.653Z,10.11
2018-12-06T16:42:05.222Z,10.04
2018-12-06T16:44:37.899Z,10.06
2018-12-06T16:47:11.373Z,10.16
2018-12-06T16:49:45.090Z,10.16
2018-12-06T16:52:17.929Z,10.11
2018-12-06T16:54:56.320Z,10.11
2018-12-06T16:57:29.210Z,10.08
2018-12-06T17:00:01.884Z,10.09
2018-12-06T17:02:36.113Z,10.11
2018-12-06T17:05:12.115Z,10.14
2018-12-06T17:07:45.957Z,10.06
2018-12-06T17:10:18.931Z,10.04
2018-12-06T17:12:51.752Z,10.06
2018-12-06T17:15:24.826Z,10.04
2018-12-06T17:17:57.433Z,10.01
2018-12-06T17:20:30.674Z,10.01
2018-12-06T17:23:06.282Z,9.98
2018-12-06T17:25:38.908Z,10.01
2018-12-06T17:28:14.504Z,10.08
2018-12-06T17:30:50.279Z,10.10
2018-12-06T17:33:25.211Z,10.10
2018-12-06T17:35:58.084Z,10.14
2018-12-06T17:38:38.387Z,10.15
2018-12-06T17:41:11.920Z,10.17
2018-12-06T17:43:44.930Z,10.13
2018-12-06T17:46:18.394Z,10.11
2018-12-06T17:48:51.134Z,10.09
2018-12-06T17:51:24.805Z,10.11
2018-12-06T17:53:57.950Z,10.10
2018-12-06T17:56:30.720Z,10.17
2018-12-06T17:59:04.188Z,10.23
2018-12-06T18:01:36.987Z,10.17
2018-12-06T18:04:11.507Z,10.25
2018-12-06T18:06:46.297Z,10.27
2018-12-06T18:09:23.396Z,10.28
2018-12-06T18:11:58.091Z,10.24
2018-12-06T18:14:32.337Z,10.21
2018-12-06T18:17:05.547Z,10.25
2018-12-06T18:19:40.057Z,10.26
2018-12-06T18:22:12.733Z,10.27
2018-12-06T18:24:47.471Z,10.26
2018-12-06T18:27:20.064Z,10.31
2018-12-06T18:32:01.932Z,10.32
2018-12-06T18:34:37.350Z,10.24
2018-12-06T18:37:14.728Z,10.19
2018-12-06T18:39:47.380Z,10.20
2018-12-06T18:42:20.673Z,10.20
2018-12-06T18:44:53.623Z,10.22
2018-12-06T18:47:27.700Z,10.22
2018-12-06T18:50:04.462Z,10.25
2018-12-06T18:52:38.006Z,10.25
2018-12-06T18:55:12.073Z,10.34
2018-12-06T18:57:46.499Z,10.31
2018-12-06T19:00:21.250Z,10.31
2018-12-06T19:02:57.660Z,10.27
2018-12-06T19:05:30.662Z,10.34
2018-12-06T19:08:04.295Z,10.29
2018-12-06T19:10:39.116Z,10.27
2018-12-06T19:13:13.693Z,10.31
2018-12-06T19:15:48.172Z,10.28
2018-12-06T19:18:25.164Z,10.24
2018-12-06T19:21:00.959Z,10.24
2018-12-06T19:23:35.733Z,10.20
2018-12-06T19:26:11.980Z,10.22
2018-12-06T19:31:36.079Z,10.17
2018-12-06T19:34:09.133Z,10.27
2018-12-06T19:36:43.766Z,10.29
2018-12-06T19:39:21.884Z,10.24
2018-12-06T19:41:57.039Z,10.24
2018-12-06T19:44:32.692Z,10.22
2018-12-06T19:47:07.195Z,10.26
2018-12-06T19:49:41.356Z,10.27
2018-12-06T19:52:16.075Z,10.20
2018-12-06T19:54:48.787Z,10.17
2018-12-06T19:57:22.296Z,10.14
2018-12-06T19:59:57.518Z,10.21
2018-12-06T20:02:31.542Z,10.16
2018-12-06T20:05:06.397Z,10.08
2018-12-06T20:07:39.528Z,10.06
2018-12-06T20:10:12.902Z,10.06
2018-12-06T20:12:46.213Z,10.10
2018-12-06T20:15:19.288Z,10.09
2018-12-06T20:17:52.597Z,10.11
2018-12-06T20:20:26.279Z,10.10
2018-12-06T20:22:59.168Z,10.15
2018-12-06T20:25:33.866Z,10.14
2018-12-06T20:28:07.712Z,10.13
2018-12-06T20:30:43.216Z,10.16
2018-12-06T20:33:15.919Z,10.20
2018-12-06T20:35:48.703Z,10.19
2018-12-06T20:38:21.672Z,10.20
2018-12-06T20:40:55.177Z,10.22
2018-12-06T20:43:32.347Z,10.20
2018-12-06T20:46:06.303Z,10.22
2018-12-06T20:48:39.435Z,10.25
2018-12-06T20:51:13.210Z,10.33
2018-12-06T20:53:45.899Z,10.34
2018-12-06T20:56:19.879Z,10.33
2018-12-06T20:58:56.511Z,10.37
2018-12-06T21:01:29.142Z,10.43
2018-12-06T21:04:05.118Z,10.46
2018-12-06T21:06:37.832Z,10.38
2018-12-06T21:09:11.416Z,10.44
2018-12-06T21:11:44.152Z,10.43
2018-12-06T21:14:22.079Z,10.40
2018-12-06T21:16:52.924Z,10.40
2018-12-06T21:19:25.901Z,10.34
2018-12-06T21:22:00.878Z,10.40
2018-12-06T21:24:35.320Z,10.39
2018-12-06T21:27:08.708Z,10.44
2018-12-06T21:29:44.159Z,10.45
2018-12-06T21:32:21.198Z,10.50
2018-12-06T21:34:57.368Z,10.44
2018-12-06T21:37:35.818Z,10.50
2018-12-06T21:40:11.149Z,10.46
2018-12-06T21:42:47.249Z,10.51
2018-12-06T21:45:23.815Z,10.53
2018-12-06T21:48:01.251Z,10.51
2018-12-06T21:50:35.861Z,10.55
2018-12-06T21:53:12.163Z,10.50
2018-12-06T21:55:46.302Z,10.57
2018-12-06T21:58:22.341Z,10.61
2018-12-06T22:00:59.127Z,10.60
2018-12-06T22:03:34.708Z,10.60
2018-12-06T22:06:08.470Z,10.58
2018-12-06T22:08:41.525Z,10.59
2018-12-06T22:11:17.267Z,10.57
2018-12-06T22:13:53.903Z,10.58
2018-12-06T22:16:31.683Z,10.59
2018-12-06T22:19:07.318Z,10.57
2018-12-06T22:21:42.510Z,10.62
2018-12-06T22:24:16.895Z,10.66
2018-12-06T22:26:53.267Z,10.69
2018-12-06T22:29:28.968Z,10.69
2018-12-06T22:32:05.554Z,10.69
2018-12-06T22:34:39.827Z,10.70
2018-12-06T22:37:15.785Z,10.73
2018-12-06T22:39:56.631Z,10.73
2018-12-06T22:42:31.592Z,10.77
2018-12-06T22:47:34.971Z,10.78
2018-12-06T22:50:13.946Z,10.80
2018-12-06T22:52:47.332Z,10.84
2018-12-06T22:55:23.156Z,10.86
2018-12-06T22:57:58.142Z,10.77
2018-12-06T23:00:32.018Z,10.76
2018-12-06T23:03:07.398Z,10.69
2018-12-06T23:05:40.027Z,10.63
2018-12-06T23:08:12.717Z,10.61
2018-12-06T23:10:45.699Z,10.59
2018-12-06T23:13:18.372Z,10.55
2018-12-06T23:15:52.227Z,10.57
2018-12-06T23:18:24.834Z,10.51
2018-12-06T23:20:57.435Z,10.53
2018-12-06T23:23:30.161Z,10.47
2018-12-06T23:26:03.473Z,10.47
2018-12-06T23:28:36.384Z,10.52
2018-12-06T23:31:09.385Z,10.45
2018-12-06T23:33:41.969Z,10.44
2018-12-06T23:36:16.820Z,10.43
2018-12-06T23:38:49.430Z,10.46
2018-12-06T23:41:22.676Z,10.47
2018-12-06T23:43:55.272Z,10.41
2018-12-06T23:46:27.972Z,10.41
2018-12-06T23:49:00.595Z,10.41
2018-12-06T23:51:37.004Z,10.39
2018-12-06T23:54:09.546Z,10.39
2018-12-06T23:56:44.597Z,10.45
2018-12-06T23:59:19.943Z,10.48
